sensor_id;sensor_type;location;lat;lon;timestamp;pressure;altitude;pressure_sealevel;temperature;humidity
84764;BME280;74992;51.072;6.088;2024-02-23T00:00:39;98768.72;;;5.22;82.15
84764;BME280;74992;51.072;6.088;2024-02-23T00:03:40;98772.06;;;5.27;81.63
84764;BME280;74992;51.072;6.088;2024-02-23T00:06:42;98777.13;;;5.32;80.51
84764;BME280;74992;51.072;6.088;2024-02-23T00:09:43;98778.84;;;5.35;80.22
84764;BME280;74992;51.072;6.088;2024-02-23T00:12:45;98784.66;;;5.52;78.24
84764;BME280;74992;51.072;6.088;2024-02-23T00:15:47;98786.28;;;5.64;77.27
84764;BME280;74992;51.072;6.088;2024-02-23T00:18:49;98792.19;;;5.67;76.77
84764;BME280;74992;51.072;6.088;2024-02-23T00:21:50;98790.53;;;5.68;75.94
84764;BME280;74992;51.072;6.088;2024-02-23T00:24:53;98798.25;;;5.62;77.61
84764;BME280;74992;51.072;6.088;2024-02-23T00:27:54;98803.38;;;5.59;77.71
84764;BME280;74992;51.072;6.088;2024-02-23T00:30:55;98803.41;;;5.54;79.41
84764;BME280;74992;51.072;6.088;2024-02-23T00:33:57;98805.13;;;5.53;79.07
84764;BME280;74992;51.072;6.088;2024-02-23T00:36:59;98814.50;;;5.56;78.36
84764;BME280;74992;51.072;6.088;2024-02-23T00:40:04;98820.47;;;5.56;77.50
84764;BME280;74992;51.072;6.088;2024-02-23T00:43:07;98824.66;;;5.62;77.04
84764;BME280;74992;51.072;6.088;2024-02-23T00:46:09;98839.19;;;5.62;75.89
84764;BME280;74992;51.072;6.088;2024-02-23T00:49:10;98841.75;;;5.55;76.74
84764;BME280;74992;51.072;6.088;2024-02-23T00:52:12;98850.31;;;5.51;77.32
84764;BME280;74992;51.072;6.088;2024-02-23T00:55:13;98843.53;;;5.47;77.76
84764;BME280;74992;51.072;6.088;2024-02-23T00:58:15;98846.06;;;5.50;77.96
84764;BME280;74992;51.072;6.088;2024-02-23T01:01:17;98852.06;;;5.49;77.65
84764;BME280;74992;51.072;6.088;2024-02-23T01:04:18;98864.03;;;5.46;78.02
84764;BME280;74992;51.072;6.088;2024-02-23T01:07:20;98872.56;;;5.40;78.38
84764;BME280;74992;51.072;6.088;2024-02-23T01:10:21;98880.25;;;5.39;78.94
84764;BME280;74992;51.072;6.088;2024-02-23T01:13:23;98882.78;;;5.42;79.50
84764;BME280;74992;51.072;6.088;2024-02-23T01:16:24;98896.44;;;5.41;79.30
84764;BME280;74992;51.072;6.088;2024-02-23T01:19:26;98893.06;;;5.37;79.89
84764;BME280;74992;51.072;6.088;2024-02-23T01:22:27;98897.34;;;5.35;79.50
84764;BME280;74992;51.072;6.088;2024-02-23T01:25:29;98894.78;;;5.31;79.18
84764;BME280;74992;51.072;6.088;2024-02-23T01:28:30;98900.78;;;5.28;78.68
84764;BME280;74992;51.072;6.088;2024-02-23T01:31:32;98907.59;;;5.27;79.17
84764;BME280;74992;51.072;6.088;2024-02-23T01:34:33;98909.28;;;5.30;78.74
84764;BME280;74992;51.072;6.088;2024-02-23T01:37:35;98903.31;;;5.31;79.45
84764;BME280;74992;51.072;6.088;2024-02-23T01:40:36;98905.84;;;5.39;77.91
84764;BME280;74992;51.072;6.088;2024-02-23T01:43:38;98918.63;;;5.37;78.04
84764;BME280;74992;51.072;6.088;2024-02-23T01:46:40;98910.97;;;5.34;78.76
84764;BME280;74992;51.072;6.088;2024-02-23T01:49:41;98909.28;;;5.30;77.59
84764;BME280;74992;51.072;6.088;2024-02-23T01:52:43;98912.72;;;5.26;77.74
84764;BME280;74992;51.072;6.088;2024-02-23T01:55:45;98914.44;;;5.25;78.21
84764;BME280;74992;51.072;6.088;2024-02-23T01:58:47;98911.91;;;5.22;78.57
84764;BME280;74992;51.072;6.088;2024-02-23T02:01:49;98903.38;;;5.22;78.26
84764;BME280;74992;51.072;6.088;2024-02-23T02:04:50;98906.78;;;5.16;77.50
84764;BME280;74992;51.072;6.088;2024-02-23T02:07:53;98900.84;;;5.13;78.04
84764;BME280;74992;51.072;6.088;2024-02-23T02:10:58;98910.22;;;5.14;77.75
84764;BME280;74992;51.072;6.088;2024-02-23T02:14:00;98908.50;;;5.16;78.30
84764;BME280;74992;51.072;6.088;2024-02-23T02:17:01;98922.16;;;5.13;77.38
84764;BME280;74992;51.072;6.088;2024-02-23T02:20:03;98919.63;;;5.10;77.82
84764;BME280;74992;51.072;6.088;2024-02-23T02:23:06;98920.44;;;5.09;78.03
84764;BME280;74992;51.072;6.088;2024-02-23T02:26:09;98920.44;;;5.09;77.33
84764;BME280;74992;51.072;6.088;2024-02-23T02:29:10;98919.63;;;5.10;77.63
84764;BME280;74992;51.072;6.088;2024-02-23T02:32:11;98924.72;;;5.10;77.46
84764;BME280;74992;51.072;6.088;2024-02-23T02:35:13;98925.56;;;5.15;77.46
84764;BME280;74992;51.072;6.088;2024-02-23T02:38:15;98918.72;;;5.17;77.74
84764;BME280;74992;51.072;6.088;2024-02-23T02:41:17;98928.09;;;5.15;77.42
84764;BME280;74992;51.072;6.088;2024-02-23T02:44:20;98926.38;;;5.17;77.47
84764;BME280;74992;51.072;6.088;2024-02-23T02:47:21;98928.94;;;5.20;77.15
84764;BME280;74992;51.072;6.088;2024-02-23T02:50:23;98926.34;;;5.26;76.62
84764;BME280;74992;51.072;6.088;2024-02-23T02:53:24;98921.28;;;5.22;77.48
84764;BME280;74992;51.072;6.088;2024-02-23T02:56:26;98932.31;;;5.25;76.87
84764;BME280;74992;51.072;6.088;2024-02-23T02:59:27;98934.88;;;5.25;76.46
84764;BME280;74992;51.072;6.088;2024-02-23T03:02:29;98939.09;;;5.31;75.77
84764;BME280;74992;51.072;6.088;2024-02-23T03:05:30;98934.84;;;5.30;76.26
84764;BME280;74992;51.072;6.088;2024-02-23T03:08:33;98928.94;;;5.25;76.17
84764;BME280;74992;51.072;6.088;2024-02-23T03:11:35;98938.31;;;5.21;77.38
84764;BME280;74992;51.072;6.088;2024-02-23T03:14:37;98928.09;;;5.17;77.18
84764;BME280;74992;51.072;6.088;2024-02-23T03:17:40;98925.50;;;5.20;76.37
84764;BME280;74992;51.072;6.088;2024-02-23T03:20:42;98936.59;;;5.20;76.36
84764;BME280;74992;51.072;6.088;2024-02-23T03:23:44;98946.81;;;5.25;76.52
84764;BME280;74992;51.072;6.088;2024-02-23T03:26:46;98942.56;;;5.24;76.16
84764;BME280;74992;51.072;6.088;2024-02-23T03:29:47;98944.25;;;5.28;75.69
84764;BME280;74992;51.072;6.088;2024-02-23T03:32:49;98938.25;;;5.35;75.37
84764;BME280;74992;51.072;6.088;2024-02-23T03:35:50;98944.25;;;5.28;75.86
84764;BME280;74992;51.072;6.088;2024-02-23T03:38:52;98938.31;;;5.24;76.12
84764;BME280;74992;51.072;6.088;2024-02-23T03:41:54;98940.84;;;5.20;76.35
84764;BME280;74992;51.072;6.088;2024-02-23T03:44:55;98954.50;;;5.20;76.36
84764;BME280;74992;51.072;6.088;2024-02-23T03:47:57;98943.44;;;5.15;76.67
84764;BME280;74992;51.072;6.088;2024-02-23T03:50:59;98951.13;;;5.15;75.93
84764;BME280;74992;51.072;6.088;2024-02-23T03:54:00;98957.06;;;5.23;75.85
84764;BME280;74992;51.072;6.088;2024-02-23T03:57:03;98950.22;;;5.28;76.32
84764;BME280;74992;51.072;6.088;2024-02-23T04:00:05;98962.13;;;5.34;76.11
84764;BME280;74992;51.072;6.088;2024-02-23T04:03:07;98969.78;;;5.37;76.27
84764;BME280;74992;51.072;6.088;2024-02-23T04:06:09;98973.16;;;5.42;75.32
84764;BME280;74992;51.072;6.088;2024-02-23T04:09:10;98975.69;;;5.51;74.99
84764;BME280;74992;51.072;6.088;2024-02-23T04:12:12;98975.69;;;5.51;74.95
84764;BME280;74992;51.072;6.088;2024-02-23T04:15:14;98972.25;;;5.55;75.01
84764;BME280;74992;51.072;6.088;2024-02-23T04:18:15;98967.13;;;5.59;74.71
84764;BME280;74992;51.072;6.088;2024-02-23T04:21:20;98963.72;;;5.58;74.71
84764;BME280;74992;51.072;6.088;2024-02-23T04:24:21;98962.88;;;5.56;74.35
84764;BME280;74992;51.072;6.088;2024-02-23T04:27:23;98951.78;;;5.55;74.76
84764;BME280;74992;51.072;6.088;2024-02-23T04:30:24;98964.56;;;5.59;73.94
84764;BME280;74992;51.072;6.088;2024-02-23T04:33:26;98962.03;;;5.52;74.91
84764;BME280;74992;51.072;6.088;2024-02-23T04:36:28;98974.00;;;5.49;75.07
84764;BME280;74992;51.072;6.088;2024-02-23T04:39:29;98974.84;;;5.51;74.31
84764;BME280;74992;51.072;6.088;2024-02-23T04:42:30;98977.41;;;5.48;74.48
84764;BME280;74992;51.072;6.088;2024-02-23T04:45:32;98973.16;;;5.41;74.61
84764;BME280;74992;51.072;6.088;2024-02-23T04:48:34;98979.97;;;5.42;74.21
84764;BME280;74992;51.072;6.088;2024-02-23T04:51:36;98974.00;;;5.47;74.58
84764;BME280;74992;51.072;6.088;2024-02-23T04:54:37;98991.91;;;5.49;75.44
84764;BME280;74992;51.072;6.088;2024-02-23T04:57:39;98985.91;;;5.53;74.96
84764;BME280;74992;51.072;6.088;2024-02-23T05:00:41;98983.34;;;5.56;74.81
84764;BME280;74992;51.072;6.088;2024-02-23T05:03:42;98978.19;;;5.62;74.81
84764;BME280;74992;51.072;6.088;2024-02-23T05:06:44;98971.31;;;5.67;73.38
84764;BME280;74992;51.072;6.088;2024-02-23T05:09:46;98977.28;;;5.72;73.58
84764;BME280;74992;51.072;6.088;2024-02-23T05:12:47;98976.41;;;5.76;73.34
84764;BME280;74992;51.072;6.088;2024-02-23T05:15:49;98970.44;;;5.79;73.12
84764;BME280;74992;51.072;6.088;2024-02-23T05:18:50;98961.91;;;5.80;73.49
84764;BME280;74992;51.072;6.088;2024-02-23T05:21:52;98966.16;;;5.79;73.10
84764;BME280;74992;51.072;6.088;2024-02-23T05:24:53;98966.97;;;5.84;72.57
84764;BME280;74992;51.072;6.088;2024-02-23T05:27:55;98961.81;;;5.88;71.82
84764;BME280;74992;51.072;6.088;2024-02-23T05:30:57;98955.00;;;5.86;71.84
84764;BME280;74992;51.072;6.088;2024-02-23T05:33:58;98949.06;;;5.84;72.51
84764;BME280;74992;51.072;6.088;2024-02-23T05:36:59;98950.75;;;5.84;72.10
84764;BME280;74992;51.072;6.088;2024-02-23T05:40:01;98958.44;;;5.84;71.46
84764;BME280;74992;51.072;6.088;2024-02-23T05:43:10;98952.50;;;5.82;72.42
84764;BME280;74992;51.072;6.088;2024-02-23T05:46:11;98954.22;;;5.80;72.70
84764;BME280;74992;51.072;6.088;2024-02-23T05:49:13;98949.06;;;5.83;72.29
84764;BME280;74992;51.072;6.088;2024-02-23T05:52:15;98943.09;;;5.84;72.92
84764;BME280;74992;51.072;6.088;2024-02-23T05:55:16;98935.44;;;5.81;72.64
84764;BME280;74992;51.072;6.088;2024-02-23T05:58:18;98932.88;;;5.76;73.36
84764;BME280;74992;51.072;6.088;2024-02-23T06:01:21;98933.81;;;5.69;73.21
84764;BME280;74992;51.072;6.088;2024-02-23T06:04:23;98933.81;;;5.65;72.80
84764;BME280;74992;51.072;6.088;2024-02-23T06:07:24;98933.88;;;5.59;72.82
84764;BME280;74992;51.072;6.088;2024-02-23T06:10:29;98936.41;;;5.62;72.74
84764;BME280;74992;51.072;6.088;2024-02-23T06:13:30;98935.53;;;5.64;72.95
84764;BME280;74992;51.072;6.088;2024-02-23T06:16:32;98931.28;;;5.63;72.30
84764;BME280;74992;51.072;6.088;2024-02-23T06:19:34;98922.72;;;5.64;72.65
84764;BME280;74992;51.072;6.088;2024-02-23T06:22:35;98927.88;;;5.61;72.27
84764;BME280;74992;51.072;6.088;2024-02-23T06:25:37;98932.13;;;5.64;72.94
84764;BME280;74992;51.072;6.088;2024-02-23T06:28:39;98932.06;;;5.74;72.26
84764;BME280;74992;51.072;6.088;2024-02-23T06:31:41;98920.94;;;5.77;71.76
84764;BME280;74992;51.072;6.088;2024-02-23T06:34:50;98926.06;;;5.77;71.11
84764;BME280;74992;51.072;6.088;2024-02-23T06:37:51;98925.25;;;5.73;71.38
84764;BME280;74992;51.072;6.088;2024-02-23T06:40:53;98928.63;;;5.75;71.91
84764;BME280;74992;51.072;6.088;2024-02-23T06:43:55;98934.59;;;5.79;72.48
84764;BME280;74992;51.072;6.088;2024-02-23T06:47:00;98926.88;;;5.85;71.54
84764;BME280;74992;51.072;6.088;2024-02-23T06:50:01;98931.97;;;5.88;72.24
84764;BME280;74992;51.072;6.088;2024-02-23T06:53:03;98940.50;;;5.85;72.19
84764;BME280;74992;51.072;6.088;2024-02-23T06:56:06;98943.09;;;5.84;72.89
84764;BME280;74992;51.072;6.088;2024-02-23T06:59:08;98944.81;;;5.80;73.75
84764;BME280;74992;51.072;6.088;2024-02-23T07:02:09;98948.25;;;5.79;73.86
84764;BME280;74992;51.072;6.088;2024-02-23T07:05:11;98951.63;;;5.78;74.50
84764;BME280;74992;51.072;6.088;2024-02-23T07:08:13;98958.50;;;5.79;74.47
84764;BME280;74992;51.072;6.088;2024-02-23T07:11:14;98957.66;;;5.74;74.80
84764;BME280;74992;51.072;6.088;2024-02-23T07:14:16;98961.91;;;5.74;74.57
84764;BME280;74992;51.072;6.088;2024-02-23T07:17:18;98963.66;;;5.70;74.39
84764;BME280;74992;51.072;6.088;2024-02-23T07:20:19;98954.28;;;5.66;75.30
84764;BME280;74992;51.072;6.088;2024-02-23T07:23:21;98955.97;;;5.66;75.37
84764;BME280;74992;51.072;6.088;2024-02-23T07:26:23;98956.03;;;5.60;74.97
84764;BME280;74992;51.072;6.088;2024-02-23T07:29:25;98968.81;;;5.55;75.50
84764;BME280;74992;51.072;6.088;2024-02-23T07:32:26;98979.09;;;5.52;76.35
84764;BME280;74992;51.072;6.088;2024-02-23T07:35:29;98979.06;;;5.53;76.21
84764;BME280;74992;51.072;6.088;2024-02-23T07:38:31;98971.34;;;5.63;75.77
84764;BME280;74992;51.072;6.088;2024-02-23T07:41:33;98969.63;;;5.69;74.72
84764;BME280;74992;51.072;6.088;2024-02-23T07:44:34;98964.50;;;5.72;74.09
84764;BME280;74992;51.072;6.088;2024-02-23T07:47:36;98962.75;;;5.74;73.47
84764;BME280;74992;51.072;6.088;2024-02-23T07:50:38;98955.06;;;5.77;73.92
84764;BME280;74992;51.072;6.088;2024-02-23T07:53:41;98962.72;;;5.82;73.97
84764;BME280;74992;51.072;6.088;2024-02-23T07:56:42;98961.00;;;5.85;73.64
84764;BME280;74992;51.072;6.088;2024-02-23T07:59:44;98960.09;;;5.90;73.80
84764;BME280;74992;51.072;6.088;2024-02-23T08:02:45;98964.38;;;5.94;74.91
84764;BME280;74992;51.072;6.088;2024-02-23T08:05:47;98970.28;;;6.02;73.91
84764;BME280;74992;51.072;6.088;2024-02-23T08:08:48;98979.66;;;6.06;72.78
84764;BME280;74992;51.072;6.088;2024-02-23T08:11:50;98977.91;;;6.12;73.11
84764;BME280;74992;51.072;6.088;2024-02-23T08:14:51;98974.50;;;6.10;72.84
84764;BME280;74992;51.072;6.088;2024-02-23T08:17:53;98979.56;;;6.18;72.75
84764;BME280;74992;51.072;6.088;2024-02-23T08:20:55;98972.69;;;6.23;73.11
84764;BME280;74992;51.072;6.088;2024-02-23T08:23:57;98976.75;;;6.47;72.53
84764;BME280;74992;51.072;6.088;2024-02-23T08:26:58;98970.69;;;6.57;72.51
84764;BME280;74992;51.072;6.088;2024-02-23T08:30:00;98976.69;;;6.58;72.45
84764;BME280;74992;51.072;6.088;2024-02-23T08:33:01;98984.34;;;6.61;71.51
84764;BME280;74992;51.072;6.088;2024-02-23T08:36:03;98979.91;;;6.78;72.02
84764;BME280;74992;51.072;6.088;2024-02-23T08:39:05;98972.88;;;6.98;70.61
84764;BME280;74992;51.072;6.088;2024-02-23T08:42:08;98980.59;;;6.95;69.55
84764;BME280;74992;51.072;6.088;2024-02-23T08:45:10;98970.34;;;6.92;70.79
84764;BME280;74992;51.072;6.088;2024-02-23T08:48:14;98965.09;;;7.08;69.92
84764;BME280;74992;51.072;6.088;2024-02-23T08:51:16;98958.16;;;7.13;70.25
84764;BME280;74992;51.072;6.088;2024-02-23T08:54:17;98976.06;;;7.19;70.78
84764;BME280;74992;51.072;6.088;2024-02-23T08:57:19;98987.19;;;7.16;69.15
84764;BME280;74992;51.072;6.088;2024-02-23T09:00:22;98962.50;;;7.09;69.80
84764;BME280;74992;51.072;6.088;2024-02-23T09:03:24;98957.31;;;7.14;68.36
84764;BME280;74992;51.072;6.088;2024-02-23T09:06:25;98967.53;;;7.15;68.57
84764;BME280;74992;51.072;6.088;2024-02-23T09:09:27;98975.22;;;7.18;68.51
84764;BME280;74992;51.072;6.088;2024-02-23T09:12:29;98966.63;;;7.21;68.51
84764;BME280;74992;51.072;6.088;2024-02-23T09:15:31;98965.69;;;7.29;68.78
84764;BME280;74992;51.072;6.088;2024-02-23T09:18:32;98956.28;;;7.27;67.20
84764;BME280;74992;51.072;6.088;2024-02-23T09:21:36;98966.56;;;7.25;67.12
84764;BME280;74992;51.072;6.088;2024-02-23T09:24:41;98962.91;;;7.45;68.69
84764;BME280;74992;51.072;6.088;2024-02-23T09:27:43;98961.94;;;7.55;67.65
84764;BME280;74992;51.072;6.088;2024-02-23T09:30:44;98961.91;;;7.56;66.23
84764;BME280;74992;51.072;6.088;2024-02-23T09:33:46;98971.16;;;7.68;66.49
84764;BME280;74992;51.072;6.088;2024-02-23T09:36:49;98974.66;;;7.63;64.95
84764;BME280;74992;51.072;6.088;2024-02-23T09:39:50;98973.78;;;7.64;67.55
84764;BME280;74992;51.072;6.088;2024-02-23T09:42:56;98972.03;;;7.67;66.04
84764;BME280;74992;51.072;6.088;2024-02-23T09:45:59;98974.56;;;7.70;65.17
84764;BME280;74992;51.072;6.088;2024-02-23T09:49:02;98973.81;;;7.62;64.81
84764;BME280;74992;51.072;6.088;2024-02-23T09:52:05;98973.91;;;7.54;64.29
84764;BME280;74992;51.072;6.088;2024-02-23T09:55:08;98985.84;;;7.57;64.43
84764;BME280;74992;51.072;6.088;2024-02-23T09:58:12;98979.84;;;7.58;64.33
84764;BME280;74992;51.072;6.088;2024-02-23T10:01:18;98978.16;;;7.57;65.96
84764;BME280;74992;51.072;6.088;2024-02-23T10:04:24;98978.09;;;7.60;65.03
84764;BME280;74992;51.072;6.088;2024-02-23T10:07:27;98979.72;;;7.69;64.51
84764;BME280;74992;51.072;6.088;2024-02-23T10:10:35;98978.66;;;7.83;64.40
84764;BME280;74992;51.072;6.088;2024-02-23T10:13:36;98976.69;;;8.01;64.17
84764;BME280;74992;51.072;6.088;2024-02-23T10:16:38;98992.13;;;7.98;63.10
84764;BME280;74992;51.072;6.088;2024-02-23T10:19:39;98987.09;;;7.92;63.95
84764;BME280;74992;51.072;6.088;2024-02-23T10:22:41;98995.56;;;7.97;64.38
84764;BME280;74992;51.072;6.088;2024-02-23T10:25:42;98998.13;;;7.98;64.79
84764;BME280;74992;51.072;6.088;2024-02-23T10:28:45;98989.22;;;8.20;64.95
84764;BME280;74992;51.072;6.088;2024-02-23T10:31:48;98988.34;;;8.23;62.97
84764;BME280;74992;51.072;6.088;2024-02-23T10:34:55;99002.03;;;8.25;63.35
84764;BME280;74992;51.072;6.088;2024-02-23T10:37:56;99006.19;;;8.35;63.95
84764;BME280;74992;51.072;6.088;2024-02-23T10:40:58;99007.81;;;8.39;63.49
84764;BME280;74992;51.072;6.088;2024-02-23T10:44:01;99010.47;;;8.32;63.05
84764;BME280;74992;51.072;6.088;2024-02-23T10:47:04;99012.84;;;8.47;64.39
84764;BME280;74992;51.072;6.088;2024-02-23T10:50:07;99014.44;;;8.54;63.47
84764;BME280;74992;51.072;6.088;2024-02-23T10:53:10;99023.84;;;8.57;63.58
84764;BME280;74992;51.072;6.088;2024-02-23T10:56:11;99019.53;;;8.56;63.37
84764;BME280;74992;51.072;6.088;2024-02-23T10:59:14;99023.00;;;8.55;63.48
84764;BME280;74992;51.072;6.088;2024-02-23T11:02:19;99014.63;;;8.42;63.13
84764;BME280;74992;51.072;6.088;2024-02-23T11:05:22;99020.69;;;8.38;62.76
84764;BME280;74992;51.072;6.088;2024-02-23T11:08:28;99022.41;;;8.37;63.62
84764;BME280;74992;51.072;6.088;2024-02-23T11:11:31;99017.31;;;8.36;62.84
84764;BME280;74992;51.072;6.088;2024-02-23T11:14:37;99024.16;;;8.37;63.17
84764;BME280;74992;51.072;6.088;2024-02-23T11:17:39;99008.72;;;8.37;63.61
84764;BME280;74992;51.072;6.088;2024-02-23T11:20:40;99011.28;;;8.37;64.70
84764;BME280;74992;51.072;6.088;2024-02-23T11:23:45;99018.16;;;8.36;64.18
84764;BME280;74992;51.072;6.088;2024-02-23T11:26:48;99018.16;;;8.36;62.95
84764;BME280;74992;51.072;6.088;2024-02-23T11:29:59;99015.56;;;8.38;63.58
84764;BME280;74992;51.072;6.088;2024-02-23T11:33:01;99018.09;;;8.39;64.06
84764;BME280;74992;51.072;6.088;2024-02-23T11:36:08;99014.56;;;8.45;63.89
84764;BME280;74992;51.072;6.088;2024-02-23T11:39:10;99028.19;;;8.52;64.20
84764;BME280;74992;51.072;6.088;2024-02-23T11:42:14;99021.59;;;8.34;63.60
84764;BME280;74992;51.072;6.088;2024-02-23T11:45:17;99030.16;;;8.33;63.05
84764;BME280;74992;51.072;6.088;2024-02-23T11:48:19;99030.06;;;8.40;63.51
84764;BME280;74992;51.072;6.088;2024-02-23T11:51:22;99032.69;;;8.37;63.09
84764;BME280;74992;51.072;6.088;2024-02-23T11:54:26;99028.47;;;8.30;63.30
84764;BME280;74992;51.072;6.088;2024-02-23T11:57:28;99032.06;;;8.20;63.18
84764;BME280;74992;51.072;6.088;2024-02-23T12:00:30;99031.19;;;8.21;63.82
84764;BME280;74992;51.072;6.088;2024-02-23T12:03:31;99027.75;;;8.20;64.22
84764;BME280;74992;51.072;6.088;2024-02-23T12:06:33;99014.91;;;8.22;63.20
84764;BME280;74992;51.072;6.088;2024-02-23T12:09:35;99014.66;;;8.40;63.92
84764;BME280;74992;51.072;6.088;2024-02-23T12:12:37;99005.69;;;8.64;62.27
84764;BME280;74992;51.072;6.088;2024-02-23T12:15:38;99015.69;;;8.83;61.80
84764;BME280;74992;51.072;6.088;2024-02-23T12:18:40;99015.06;;;9.16;62.69
84764;BME280;74992;51.072;6.088;2024-02-23T12:21:45;99012.31;;;9.27;62.07
84764;BME280;74992;51.072;6.088;2024-02-23T12:24:46;99010.09;;;9.52;60.45
84764;BME280;74992;51.072;6.088;2024-02-23T12:27:54;99017.44;;;9.25;60.66
84764;BME280;74992;51.072;6.088;2024-02-23T12:31:03;99015.50;;;9.36;61.55
84764;BME280;74992;51.072;6.088;2024-02-23T12:34:04;99015.47;;;9.40;59.72
84764;BME280;74992;51.072;6.088;2024-02-23T12:37:07;99018.66;;;9.52;61.05
84764;BME280;74992;51.072;6.088;2024-02-23T12:40:09;99018.78;;;9.45;60.25
84764;BME280;74992;51.072;6.088;2024-02-23T12:43:11;99027.25;;;9.51;58.41
84764;BME280;74992;51.072;6.088;2024-02-23T12:46:12;99028.03;;;9.55;58.19
84764;BME280;74992;51.072;6.088;2024-02-23T12:49:14;99023.00;;;9.50;59.54
84764;BME280;74992;51.072;6.088;2024-02-23T12:52:16;99014.66;;;9.36;59.48
84764;BME280;74992;51.072;6.088;2024-02-23T12:55:17;99019.69;;;9.44;59.00
84764;BME280;74992;51.072;6.088;2024-02-23T12:58:19;99018.06;;;9.40;58.49
84764;BME280;74992;51.072;6.088;2024-02-23T13:01:20;99015.44;;;9.41;57.79
84764;BME280;74992;51.072;6.088;2024-02-23T13:04:22;99015.56;;;9.35;58.99
84764;BME280;74992;51.072;6.088;2024-02-23T13:07:24;99017.47;;;9.24;57.94
84764;BME280;74992;51.072;6.088;2024-02-23T13:10:25;99011.31;;;9.32;58.82
84764;BME280;74992;51.072;6.088;2024-02-23T13:13:26;99016.59;;;9.26;59.45
84764;BME280;74992;51.072;6.088;2024-02-23T13:16:29;99018.94;;;9.39;59.71
84764;BME280;74992;51.072;6.088;2024-02-23T13:19:30;99023.13;;;9.43;58.88
84764;BME280;74992;51.072;6.088;2024-02-23T13:22:32;99028.91;;;9.54;57.15
84764;BME280;74992;51.072;6.088;2024-02-23T13:25:38;99025.34;;;9.61;57.78
84764;BME280;74992;51.072;6.088;2024-02-23T13:28:42;99026.69;;;9.79;58.09
84764;BME280;74992;51.072;6.088;2024-02-23T13:31:43;99030.19;;;9.76;57.52
84764;BME280;74992;51.072;6.088;2024-02-23T13:34:46;99036.25;;;9.74;58.28
84764;BME280;74992;51.072;6.088;2024-02-23T13:37:52;99035.25;;;9.79;57.12
84764;BME280;74992;51.072;6.088;2024-02-23T13:40:54;99028.34;;;9.81;57.75
84764;BME280;74992;51.072;6.088;2024-02-23T13:43:55;99021.06;;;9.60;58.04
84764;BME280;74992;51.072;6.088;2024-02-23T13:46:57;99023.91;;;9.46;59.13
84764;BME280;74992;51.072;6.088;2024-02-23T13:49:58;99023.13;;;9.43;60.18
84764;BME280;74992;51.072;6.088;2024-02-23T13:53:00;99029.44;;;9.28;62.18
84764;BME280;74992;51.072;6.088;2024-02-23T13:56:01;99040.13;;;9.06;64.17
84764;BME280;74992;51.072;6.088;2024-02-23T13:59:03;99045.03;;;8.71;69.28
84764;BME280;74992;51.072;6.088;2024-02-23T14:02:04;99037.41;;;8.65;71.10
84764;BME280;74992;51.072;6.088;2024-02-23T14:05:06;99042.69;;;8.56;71.24
84764;BME280;74992;51.072;6.088;2024-02-23T14:08:08;99040.38;;;8.39;71.77
84764;BME280;74992;51.072;6.088;2024-02-23T14:11:10;99035.25;;;8.39;70.29
84764;BME280;74992;51.072;6.088;2024-02-23T14:14:12;99037.53;;;8.57;69.52
84764;BME280;74992;51.072;6.088;2024-02-23T14:17:15;99026.47;;;8.52;69.24
84764;BME280;74992;51.072;6.088;2024-02-23T14:20:16;99011.00;;;8.54;67.90
84764;BME280;74992;51.072;6.088;2024-02-23T14:23:18;99015.44;;;8.45;68.76
84764;BME280;74992;51.072;6.088;2024-02-23T14:26:19;99015.59;;;8.36;68.85
84764;BME280;74992;51.072;6.088;2024-02-23T14:29:21;99010.44;;;8.36;66.71
84764;BME280;74992;51.072;6.088;2024-02-23T14:32:22;99020.63;;;8.42;67.52
84764;BME280;74992;51.072;6.088;2024-02-23T14:35:24;99024.81;;;8.48;69.27
84764;BME280;74992;51.072;6.088;2024-02-23T14:38:25;99041.88;;;8.52;71.38
84764;BME280;74992;51.072;6.088;2024-02-23T14:41:27;99041.66;;;8.10;73.16
84764;BME280;74992;51.072;6.088;2024-02-23T14:44:29;99038.50;;;7.90;73.17
84764;BME280;74992;51.072;6.088;2024-02-23T14:47:32;99038.38;;;7.98;74.18
84764;BME280;74992;51.072;6.088;2024-02-23T14:50:34;99027.63;;;8.30;72.29
84764;BME280;74992;51.072;6.088;2024-02-23T14:53:36;99022.34;;;8.42;69.44
84764;BME280;74992;51.072;6.088;2024-02-23T14:56:38;99025.78;;;8.41;69.30
84764;BME280;74992;51.072;6.088;2024-02-23T14:59:40;99031.09;;;8.29;68.52
84764;BME280;74992;51.072;6.088;2024-02-23T15:02:46;99032.94;;;8.19;68.95
84764;BME280;74992;51.072;6.088;2024-02-23T15:05:49;99037.34;;;8.09;68.60
84764;BME280;74992;51.072;6.088;2024-02-23T15:08:50;99035.63;;;8.11;70.21
84764;BME280;74992;51.072;6.088;2024-02-23T15:11:52;99035.50;;;8.19;69.23
84764;BME280;74992;51.072;6.088;2024-02-23T15:14:54;99032.91;;;8.22;68.39
84764;BME280;74992;51.072;6.088;2024-02-23T15:17:55;99036.28;;;8.26;69.24
84764;BME280;74992;51.072;6.088;2024-02-23T15:20:57;99043.03;;;8.34;67.90
84764;BME280;74992;51.072;6.088;2024-02-23T15:23:58;99036.31;;;8.23;67.98
84764;BME280;74992;51.072;6.088;2024-02-23T15:27:00;99048.34;;;8.19;69.96
84764;BME280;74992;51.072;6.088;2024-02-23T15:30:01;99051.03;;;8.13;69.43
84764;BME280;74992;51.072;6.088;2024-02-23T15:33:03;99056.88;;;8.21;70.03
84764;BME280;74992;51.072;6.088;2024-02-23T15:36:08;99051.66;;;8.27;69.47
84764;BME280;74992;51.072;6.088;2024-02-23T15:39:09;99047.13;;;8.46;70.83
84764;BME280;74992;51.072;6.088;2024-02-23T15:42:11;99052.13;;;8.54;68.37
84764;BME280;74992;51.072;6.088;2024-02-23T15:45:13;99048.84;;;8.44;68.98
84764;BME280;74992;51.072;6.088;2024-02-23T15:48:15;99043.88;;;8.32;69.57
84764;BME280;74992;51.072;6.088;2024-02-23T15:51:16;99045.72;;;8.24;70.75
84764;BME280;74992;51.072;6.088;2024-02-23T15:54:18;99049.97;;;8.26;69.21
84764;BME280;74992;51.072;6.088;2024-02-23T15:57:20;99047.13;;;8.44;69.38
84764;BME280;74992;51.072;6.088;2024-02-23T16:00:22;99054.09;;;8.39;68.54
84764;BME280;74992;51.072;6.088;2024-02-23T16:03:23;99053.16;;;8.43;69.61
84764;BME280;74992;51.072;6.088;2024-02-23T16:06:25;99048.03;;;8.42;69.34
84764;BME280;74992;51.072;6.088;2024-02-23T16:09:30;99058.44;;;8.36;69.20
84764;BME280;74992;51.072;6.088;2024-02-23T16:12:32;99057.41;;;8.44;70.48
84764;BME280;74992;51.072;6.088;2024-02-23T16:15:34;99058.41;;;8.37;68.20